createdAt,value
2017-07-01T00:00:18.891Z,83.59
2017-07-01T00:00:45.009Z,83.2
2017-07-01T00:01:11.157Z,83.4
2017-07-01T00:01:37.259Z,83.2
2017-07-01T00:02:03.349Z,83.59
2017-07-01T00:02:29.458Z,83.3
2017-07-01T00:02:55.569Z,83.2
2017-07-01T00:03:21.692Z,83.3
2017-07-01T00:03:47.824Z,83.4
2017-07-01T00:04:13.916Z,83.2
2017-07-01T00:04:40.014Z,83.3
2017-07-01T00:05:06.174Z,83.3
2017-07-01T00:05:32.301Z,83.3
2017-07-01T00:05:58.358Z,83.59
2017-07-01T00:06:24.465Z,83.34
2017-07-01T00:06:50.562Z,83.06
2017-07-01T00:07:16.676Z,83.2
2017-07-01T00:07:42.784Z,82.53
2017-07-01T00:08:08.901Z,83.01
2017-07-01T00:08:35.008Z,82.96
2017-07-01T00:09:01.129Z,83.63
2017-07-01T00:09:27.245Z,83.63
2017-07-01T00:09:53.383Z,83.59
2017-07-01T00:10:19.506Z,83.59
2017-07-01T00:10:45.622Z,83.15
2017-07-01T00:11:11.779Z,83.44
2017-07-01T00:11:37.881Z,83.4
2017-07-01T00:12:03.995Z,83.3
2017-07-01T00:12:30.121Z,83.2
2017-07-01T00:12:56.282Z,83.78
2017-07-01T00:13:22.422Z,83.3
2017-07-01T00:13:48.519Z,84.17
2017-07-01T00:14:14.635Z,84.17
2017-07-01T00:14:40.768Z,84.17
2017-07-01T00:15:06.924Z,83.97
2017-07-01T00:15:33.014Z,84.36
2017-07-01T00:15:59.144Z,83.87
2017-07-01T00:16:25.277Z,84.26
2017-07-01T00:16:51.388Z,83.97
2017-07-01T00:17:17.518Z,84.45
2017-07-01T00:17:43.620Z,83.87
2017-07-01T00:18:09.761Z,83.97
2017-07-01T00:18:35.883Z,84.26
2017-07-01T00:19:02.032Z,83.97
2017-07-01T00:19:28.213Z,84.64
2017-07-01T00:19:54.317Z,84.45
2017-07-01T00:20:20.404Z,84.26
2017-07-01T00:20:46.528Z,84.74
2017-07-01T00:21:12.633Z,83.97
2017-07-01T00:21:38.723Z,84.17
2017-07-01T00:22:04.868Z,84.36
2017-07-01T00:22:30.999Z,83.97
2017-07-01T00:22:57.143Z,84.45
2017-07-01T00:23:23.233Z,83.49
2017-07-01T00:23:49.366Z,83.78
2017-07-01T00:24:15.461Z,83.59
2017-07-01T00:24:41.578Z,84.26
2017-07-01T00:25:07.759Z,84.55
2017-07-01T00:25:33.857Z,84.45
2017-07-01T00:25:59.947Z,84.74
2017-07-01T00:26:26.078Z,84.36
2017-07-01T00:26:52.212Z,84.55
2017-07-01T00:27:18.325Z,84.45
2017-07-01T00:27:44.426Z,84.26
2017-07-01T00:28:10.560Z,84.55
2017-07-01T00:28:36.651Z,84.74
2017-07-01T00:29:02.748Z,84.55
2017-07-01T00:29:28.910Z,84.07
2017-07-01T00:29:55.033Z,84.64
2017-07-01T00:30:21.166Z,84.55
2017-07-01T00:30:47.277Z,84.45
2017-07-01T00:31:13.377Z,84.07
2017-07-01T00:31:39.510Z,84.17
2017-07-01T00:32:05.603Z,84.45
2017-07-01T00:32:31.700Z,84.64
2017-07-01T00:32:57.834Z,84.64
2017-07-01T00:33:23.982Z,84.55
2017-07-01T00:33:50.119Z,84.55
2017-07-01T00:34:16.259Z,84.17
2017-07-01T00:34:42.385Z,84.17
2017-07-01T00:35:08.553Z,84.26
2017-07-01T00:35:34.687Z,84.26
2017-07-01T00:36:00.782Z,84.36
2017-07-01T00:36:26.889Z,84.45
2017-07-01T00:36:53.032Z,84.26
2017-07-01T00:37:19.122Z,84.36
2017-07-01T00:37:45.256Z,84.07
2017-07-01T00:38:11.351Z,84.36
2017-07-01T00:38:37.514Z,84.07
2017-07-01T00:39:03.648Z,84.55
2017-07-01T00:39:29.830Z,84.64
2017-07-01T00:39:55.920Z,84.45
2017-07-01T00:40:22.050Z,84.74
2017-07-01T00:40:48.183Z,84.84
2017-07-01T00:41:14.321Z,84.84
2017-07-01T00:41:40.499Z,85.03
2017-07-01T00:42:06.592Z,84.55
2017-07-01T00:42:32.720Z,85.32
2017-07-01T00:42:58.818Z,85.03
2017-07-01T00:43:24.932Z,85.51
2017-07-01T00:43:51.034Z,85.22
2017-07-01T00:44:17.140Z,85.51
2017-07-01T00:44:43.301Z,85.89
2017-07-01T00:45:09.399Z,85.89
2017-07-01T00:45:35.528Z,86.38
2017-07-01T00:46:01.644Z,86.18
2017-07-01T00:46:27.742Z,85.71
2017-07-01T00:46:53.837Z,86.28
2017-07-01T00:47:19.939Z,86.09
2017-07-01T00:47:46.061Z,86.38
2017-07-01T00:48:12.159Z,86.18
2017-07-01T00:48:38.259Z,85.8
2017-07-01T00:49:04.419Z,85.71
2017-07-01T00:49:30.562Z,85.32
2017-07-01T00:49:56.710Z,85.61
2017-07-01T00:50:22.871Z,84.94
2017-07-01T00:50:48.967Z,85.03
2017-07-01T00:51:15.082Z,84.94
2017-07-01T00:51:41.191Z,85.71
2017-07-01T00:52:07.309Z,84.94
2017-07-01T00:52:33.413Z,85.13
2017-07-01T00:52:59.552Z,85.61
2017-07-01T00:53:25.649Z,85.51
2017-07-01T00:53:51.838Z,85.41
2017-07-01T00:54:17.933Z,85.61
2017-07-01T00:54:44.048Z,85.89
2017-07-01T00:55:10.182Z,85.32
2017-07-01T00:55:36.277Z,85.32
2017-07-01T00:56:02.392Z,85.51
2017-07-01T00:56:28.524Z,85.32
2017-07-01T00:56:54.652Z,85.8
2017-07-01T00:57:20.740Z,85.89
2017-07-01T00:57:46.843Z,85.61
2017-07-01T00:58:12.983Z,85.71
2017-07-01T00:58:39.148Z,85.8
2017-07-01T00:59:05.302Z,85.99
2017-07-01T00:59:31.443Z,86.38
2017-07-01T00:59:57.549Z,85.61
2017-07-01T01:00:23.704Z,85.89
2017-07-01T01:00:49.790Z,86.09
2017-07-01T01:01:15.892Z,86.28
2017-07-01T01:01:42.025Z,86.18
2017-07-01T01:02:08.141Z,85.41
2017-07-01T01:02:34.240Z,85.89
2017-07-01T01:03:00.371Z,86.38
2017-07-01T01:03:26.462Z,86.18
2017-07-01T01:03:52.565Z,86.18
2017-07-01T01:04:18.681Z,86.09
2017-07-01T01:04:44.808Z,85.99
2017-07-01T01:05:10.942Z,86.18
2017-07-01T01:05:37.028Z,86.18
2017-07-01T01:06:03.150Z,85.89
2017-07-01T01:06:29.255Z,86.18
2017-07-01T01:06:55.347Z,85.71
2017-07-01T01:07:21.445Z,85.99
2017-07-01T01:07:47.547Z,86.09
2017-07-01T01:08:13.646Z,86.38
2017-07-01T01:08:39.756Z,85.99
2017-07-01T01:09:05.920Z,86.76
2017-07-01T01:09:32.044Z,86.57
2017-07-01T01:09:58.160Z,86.47
2017-07-01T01:10:24.267Z,86.57
2017-07-01T01:10:50.393Z,86.47
2017-07-01T01:11:16.484Z,86.33
2017-07-01T01:11:42.586Z,86.24
2017-07-01T01:12:08.692Z,86.72
2017-07-01T01:12:34.778Z,86.72
2017-07-01T01:13:00.879Z,86.33
2017-07-01T01:13:26.985Z,86.43
2017-07-01T01:13:53.102Z,87.01
2017-07-01T01:14:19.197Z,86.72
2017-07-01T01:14:45.321Z,86.43
2017-07-01T01:15:11.423Z,86.91
2017-07-01T01:15:37.529Z,86.52
2017-07-01T01:16:03.667Z,86.81
2017-07-01T01:16:29.792Z,86.72
2017-07-01T01:16:55.898Z,86.43
2017-07-01T01:17:21.988Z,87.1
2017-07-01T01:17:48.083Z,86.62
2017-07-01T01:18:14.190Z,86.81
2017-07-01T01:18:40.334Z,86.91
2017-07-01T01:19:06.487Z,87.1
2017-07-01T01:19:32.609Z,87.1
2017-07-01T01:19:58.735Z,86.91
2017-07-01T01:20:24.866Z,86.72
2017-07-01T01:20:50.955Z,86.85
2017-07-01T01:21:17.050Z,87.15
2017-07-01T01:21:43.214Z,87.01
2017-07-01T01:22:09.330Z,86.91
2017-07-01T01:22:35.421Z,86.47
2017-07-01T01:23:01.560Z,86.72
2017-07-01T01:23:27.658Z,86.81
2017-07-01T01:23:53.799Z,86.62
2017-07-01T01:24:19.930Z,86.91
2017-07-01T01:24:46.051Z,86.52
2017-07-01T01:25:12.168Z,87.01
2017-07-01T01:25:38.271Z,86.81
2017-07-01T01:26:04.387Z,87.1
2017-07-01T01:26:30.548Z,87.39
2017-07-01T01:26:56.646Z,87.49
2017-07-01T01:27:22.735Z,87.19
2017-07-01T01:27:48.841Z,86.52
2017-07-01T01:28:14.998Z,86.33
2017-07-01T01:28:41.111Z,86.52
2017-07-01T01:29:07.212Z,86.72
2017-07-01T01:29:33.374Z,86.52
2017-07-01T01:29:59.463Z,87.01
2017-07-01T01:30:25.561Z,87.1
2017-07-01T01:30:51.696Z,87.49
2017-07-01T01:31:17.785Z,87.19
2017-07-01T01:31:43.914Z,87.58
2017-07-01T01:32:10.003Z,87.68
2017-07-01T01:32:36.106Z,88.25
2017-07-01T01:33:02.210Z,89.31
2017-07-01T01:33:28.350Z,89.6
2017-07-01T01:33:54.521Z,89.69
2017-07-01T01:34:20.680Z,89.98
2017-07-01T01:34:46.794Z,90.17
2017-07-01T01:35:12.917Z,89.98
2017-07-01T01:35:39.020Z,89.89
2017-07-01T01:36:05.141Z,89.89
2017-07-01T01:36:31.232Z,89.12
2017-07-01T01:36:57.335Z,89.4
2017-07-01T01:37:23.434Z,89.6
2017-07-01T01:37:49.541Z,89.5
2017-07-01T01:38:15.631Z,89.5
2017-07-01T01:38:41.727Z,89.6
2017-07-01T01:39:07.832Z,89.31
2017-07-01T01:39:33.927Z,89.5
2017-07-01T01:40:00.018Z,89.22
2017-07-01T01:40:26.155Z,89.02
2017-07-01T01:40:52.251Z,88.93
2017-07-01T01:41:18.368Z,89.31
2017-07-01T01:41:44.503Z,89.22
2017-07-01T01:42:10.599Z,88.73
2017-07-01T01:42:36.725Z,88.73
2017-07-01T01:43:02.843Z,89.22
2017-07-01T01:43:28.959Z,88.93
2017-07-01T01:43:55.096Z,88.83
2017-07-01T01:44:21.193Z,88.93
2017-07-01T01:44:47.281Z,89.12
2017-07-01T01:45:13.388Z,88.64
2017-07-01T01:45:39.485Z,88.93
2017-07-01T01:46:05.576Z,89.22
2017-07-01T01:46:31.679Z,88.83
2017-07-01T01:46:57.787Z,89.6
2017-07-01T01:47:23.872Z,89.89
2017-07-01T01:47:49.971Z,89.4
2017-07-01T01:48:16.087Z,89.98
2017-07-01T01:48:42.223Z,90.17
2017-07-01T01:49:08.377Z,90.32
2017-07-01T01:49:34.468Z,90.03
2017-07-01T01:50:00.621Z,90.32
2017-07-01T01:50:26.728Z,90.13
2017-07-01T01:50:52.837Z,90.7
2017-07-01T01:51:18.937Z,90.46
2017-07-01T01:51:45.068Z,90.32
2017-07-01T01:52:11.187Z,89.75
2017-07-01T01:52:37.309Z,89.84
2017-07-01T01:53:03.417Z,90.03
2017-07-01T01:53:29.509Z,90.42
2017-07-01T01:53:55.597Z,90.61
2017-07-01T01:54:21.735Z,90.99
2017-07-01T01:54:47.833Z,90.99
2017-07-01T01:55:13.969Z,90.99
2017-07-01T01:55:40.076Z,90.99
2017-07-01T01:56:06.200Z,90.99
2017-07-01T01:56:32.316Z,90.9
2017-07-01T01:56:58.416Z,90.99
2017-07-01T01:57:24.524Z,91.28
2017-07-01T01:57:50.661Z,90.7
2017-07-01T01:58:16.811Z,91.66
2017-07-01T01:58:42.975Z,91.28
2017-07-01T01:59:09.089Z,91.76
2017-07-01T01:59:35.244Z,91.38
2017-07-01T02:00:01.385Z,91.76
2017-07-01T02:00:27.510Z,91.28
2017-07-01T02:00:53.617Z,91.86
2017-07-01T02:01:19.753Z,91.66
2017-07-01T02:01:45.879Z,92.05
2017-07-01T02:02:12.011Z,92.43
2017-07-01T02:02:38.170Z,92.82
2017-07-01T02:03:04.235Z,92.39
2017-07-01T02:03:30.370Z,92.19
2017-07-01T02:03:56.490Z,92.29
2017-07-01T02:04:22.602Z,92.19
2017-07-01T02:04:48.708Z,93.15
2017-07-01T02:05:14.828Z,93.15
2017-07-01T02:05:40.940Z,93.15
2017-07-01T02:06:07.055Z,93.06
2017-07-01T02:06:33.147Z,93.06
2017-07-01T02:06:59.237Z,93.35
2017-07-01T02:07:25.366Z,93.54
2017-07-01T02:07:51.470Z,93.63
2017-07-01T02:08:17.559Z,93.15
2017-07-01T02:08:43.688Z,92.77
2017-07-01T02:09:09.821Z,93.06
2017-07-01T02:09:35.912Z,92.68
2017-07-01T02:10:02.058Z,92.96
2017-07-01T02:10:28.183Z,93.63
2017-07-01T02:10:54.313Z,93.15
2017-07-01T02:11:20.417Z,93.25
2017-07-01T02:11:46.551Z,93.44
2017-07-01T02:12:12.653Z,93.92
2017-07-01T02:12:38.816Z,93.25
2017-07-01T02:13:04.906Z,92.77
2017-07-01T02:13:31.002Z,92.77
2017-07-01T02:13:57.163Z,93.06
2017-07-01T02:14:23.284Z,92.96
2017-07-01T02:14:49.400Z,93.54
2017-07-01T02:15:15.592Z,93.15
2017-07-01T02:15:41.716Z,93.73
2017-07-01T02:16:07.817Z,93.35
2017-07-01T02:16:33.909Z,93.63
2017-07-01T02:17:00.030Z,93.54
2017-07-01T02:17:26.136Z,93.73
2017-07-01T02:17:52.227Z,93.82
2017-07-01T02:18:18.362Z,94.31
2017-07-01T02:18:44.498Z,93.25
2017-07-01T02:19:10.595Z,93.73
2017-07-01T02:19:36.683Z,93.63
2017-07-01T02:20:02.816Z,93.73
2017-07-01T02:20:28.945Z,93.25
2017-07-01T02:20:55.034Z,93.44
2017-07-01T02:21:21.136Z,93.15
2017-07-01T02:21:47.228Z,93.15
2017-07-01T02:22:13.333Z,93.35
2017-07-01T02:22:39.430Z,93.44
2017-07-01T02:23:05.520Z,93.25
2017-07-01T02:23:31.624Z,93.54
2017-07-01T02:23:57.752Z,92.68
2017-07-01T02:24:23.888Z,92.96
2017-07-01T02:24:50.016Z,92.86
2017-07-01T02:25:16.122Z,92.86
2017-07-01T02:25:42.205Z,92.29
2017-07-01T02:26:08.304Z,92.1
2017-07-01T02:26:34.493Z,92.58
2017-07-01T02:27:00.581Z,92.39
2017-07-01T02:27:26.684Z,92.96
2017-07-01T02:27:52.777Z,93.15
2017-07-01T02:28:18.957Z,92.77
2017-07-01T02:28:45.114Z,92.86
2017-07-01T02:29:11.228Z,93.25
2017-07-01T02:29:37.351Z,92.77
2017-07-01T02:30:03.513Z,92.39
2017-07-01T02:30:29.651Z,92.77
2017-07-01T02:30:55.747Z,92.63
2017-07-01T02:31:21.905Z,92.77
2017-07-01T02:31:47.997Z,92.96
2017-07-01T02:32:14.088Z,92.77
2017-07-01T02:32:40.217Z,92.29
2017-07-01T02:33:06.316Z,92.77
2017-07-01T02:33:32.422Z,92.82
2017-07-01T02:33:58.511Z,92.86
2017-07-01T02:34:24.605Z,92.77
2017-07-01T02:34:50.737Z,92.86
2017-07-01T02:35:16.858Z,92.29
2017-07-01T02:35:42.970Z,92.19
2017-07-01T02:36:09.101Z,92.19
2017-07-01T02:36:35.218Z,92.44
2017-07-01T02:37:01.342Z,92.39
2017-07-01T02:37:27.525Z,92.19
2017-07-01T02:37:53.625Z,92.63
2017-07-01T02:38:19.713Z,92.91
2017-07-01T02:38:45.840Z,92.39
2017-07-01T02:39:12.026Z,92.29
2017-07-01T02:39:38.138Z,92.1
2017-07-01T02:40:04.264Z,92
2017-07-01T02:40:30.397Z,92.29
2017-07-01T02:40:56.512Z,92.39
2017-07-01T02:41:22.609Z,92.1
2017-07-01T02:41:48.742Z,92.48
2017-07-01T02:42:14.860Z,92.19
2017-07-01T02:42:40.950Z,92.39
2017-07-01T02:43:07.085Z,92.48
2017-07-01T02:43:33.181Z,92.19
2017-07-01T02:43:59.309Z,91.62
2017-07-01T02:44:25.396Z,91.42
2017-07-01T02:44:51.494Z,91.42
2017-07-01T02:45:17.597Z,91.42
2017-07-01T02:45:43.716Z,92
2017-07-01T02:46:09.804Z,91.62
2017-07-01T02:46:35.914Z,91.81
2017-07-01T02:47:02.010Z,91.91
2017-07-01T02:47:28.150Z,92
2017-07-01T02:47:54.309Z,91.52
2017-07-01T02:48:20.408Z,91.24
2017-07-01T02:48:46.549Z,91.33
2017-07-01T02:49:12.703Z,91.05
2017-07-01T02:49:38.818Z,91.24
2017-07-01T02:50:04.952Z,91.24
2017-07-01T02:50:31.074Z,91.14
2017-07-01T02:50:57.187Z,91.24
2017-07-01T02:51:23.320Z,91.62
2017-07-01T02:51:49.420Z,91.24
2017-07-01T02:52:15.533Z,91.42
2017-07-01T02:52:41.635Z,91.62
2017-07-01T02:53:07.796Z,91.14
2017-07-01T02:53:33.931Z,91.42
2017-07-01T02:54:00.078Z,91.72
2017-07-01T02:54:26.182Z,91.33
2017-07-01T02:54:52.344Z,91.52
2017-07-01T02:55:18.448Z,91.33
2017-07-01T02:55:44.562Z,91.24
2017-07-01T02:56:10.662Z,91.24
2017-07-01T02:56:36.767Z,91.24
2017-07-01T02:57:02.901Z,91.24
2017-07-01T02:57:29.025Z,91.14
2017-07-01T02:57:55.231Z,91.81
2017-07-01T02:58:21.325Z,91.52
2017-07-01T02:58:47.451Z,91.91
2017-07-01T02:59:13.608Z,91.86
2017-07-01T02:59:39.752Z,91.91
2017-07-01T03:00:05.842Z,91.72
2017-07-01T03:00:31.953Z,91.91
2017-07-01T03:00:58.048Z,92.24
2017-07-01T03:01:24.138Z,92.34
2017-07-01T03:01:50.241Z,92.15
2017-07-01T03:02:16.340Z,92.29
2017-07-01T03:02:42.456Z,92.29
2017-07-01T03:03:08.562Z,92.39
2017-07-01T03:03:34.691Z,92.19
2017-07-01T03:04:00.803Z,92.39
2017-07-01T03:04:26.929Z,91.91
2017-07-01T03:04:53.036Z,92.1
2017-07-01T03:05:19.125Z,91.91
2017-07-01T03:05:45.224Z,92.15
2017-07-01T03:06:11.371Z,92.19
2017-07-01T03:06:37.501Z,92.19
2017-07-01T03:07:03.630Z,92.05
2017-07-01T03:07:29.741Z,92.1
2017-07-01T03:07:55.843Z,92
2017-07-01T03:08:21.975Z,92.19
2017-07-01T03:08:48.119Z,92.48
2017-07-01T03:09:14.238Z,92.24
2017-07-01T03:09:40.401Z,91.96
2017-07-01T03:10:06.493Z,92.05
2017-07-01T03:10:32.584Z,93.11
2017-07-01T03:10:58.719Z,92.72
2017-07-01T03:11:24.839Z,92.82
2017-07-01T03:11:50.941Z,92.44
2017-07-01T03:12:17.052Z,92.34
2017-07-01T03:12:43.179Z,92.54
2017-07-01T03:13:09.366Z,92.34
2017-07-01T03:13:35.488Z,92.15
2017-07-01T03:14:01.601Z,92.15
2017-07-01T03:14:27.736Z,93.01
2017-07-01T03:14:53.917Z,93.01
2017-07-01T03:15:20.006Z,93.11
2017-07-01T03:15:46.139Z,93.21
2017-07-01T03:16:12.267Z,93.4
2017-07-01T03:16:38.382Z,93.21
2017-07-01T03:17:04.510Z,94.35
2017-07-01T03:17:30.600Z,94.74
2017-07-01T03:17:56.708Z,94.35
2017-07-01T03:18:22.825Z,93.59
2017-07-01T03:18:48.962Z,93.59
2017-07-01T03:19:15.068Z,93.68
2017-07-01T03:19:41.195Z,93.21
2017-07-01T03:20:07.309Z,93.97
2017-07-01T03:20:33.440Z,93.68
2017-07-01T03:20:59.546Z,94.35
2017-07-01T03:21:25.658Z,94.54
2017-07-01T03:21:51.784Z,93.88
2017-07-01T03:22:17.917Z,93.68
2017-07-01T03:22:44.028Z,93.68
2017-07-01T03:23:10.123Z,93.78
2017-07-01T03:23:36.284Z,93.78
2017-07-01T03:24:02.431Z,94.64
2017-07-01T03:24:28.545Z,94.26
2017-07-01T03:24:54.653Z,94.64
2017-07-01T03:25:20.747Z,94.64
2017-07-01T03:25:46.837Z,94.64
2017-07-01T03:26:12.996Z,94.35
2017-07-01T03:26:39.124Z,94.54
2017-07-01T03:27:05.262Z,94.35
2017-07-01T03:27:31.367Z,94.26
2017-07-01T03:27:57.501Z,94.07
2017-07-01T03:28:23.592Z,94.12
2017-07-01T03:28:49.737Z,94.07
2017-07-01T03:29:15.827Z,94.07
2017-07-01T03:29:41.955Z,94.26
2017-07-01T03:30:08.109Z,93.93
2017-07-01T03:30:34.220Z,93.68
2017-07-01T03:31:00.350Z,94.54
2017-07-01T03:31:26.457Z,95.03
2017-07-01T03:31:52.571Z,94.35
2017-07-01T03:32:18.666Z,94.17
2017-07-01T03:32:44.799Z,94.84
2017-07-01T03:33:10.918Z,94.64
2017-07-01T03:33:37.038Z,94.45
2017-07-01T03:34:03.136Z,93.88
2017-07-01T03:34:29.315Z,94.45
2017-07-01T03:34:55.421Z,94.35
2017-07-01T03:35:21.507Z,94.54
2017-07-01T03:35:47.607Z,94.17
2017-07-01T03:36:13.714Z,94.45
2017-07-01T03:36:39.831Z,94.35
2017-07-01T03:37:05.977Z,94.54
2017-07-01T03:37:32.109Z,93.78
2017-07-01T03:37:58.205Z,94.64
2017-07-01T03:38:24.319Z,94.45
2017-07-01T03:38:50.453Z,95.03
2017-07-01T03:39:16.631Z,94.26
2017-07-01T03:39:42.809Z,94.54
2017-07-01T03:40:08.924Z,94.64
2017-07-01T03:40:35.021Z,94.64
2017-07-01T03:41:01.124Z,94.5
2017-07-01T03:41:27.217Z,94.64
2017-07-01T03:41:53.308Z,95.03
2017-07-01T03:42:19.414Z,94.74
2017-07-01T03:42:45.509Z,95.56
2017-07-01T03:43:11.673Z,95.56
2017-07-01T03:43:38.081Z,95.65
2017-07-01T03:44:04.178Z,95.36
2017-07-01T03:44:30.268Z,95.7
2017-07-01T03:44:56.370Z,95.7
2017-07-01T03:45:22.510Z,95.31
2017-07-01T03:45:48.624Z,95.6
2017-07-01T03:46:14.744Z,94.93
2017-07-01T03:46:40.834Z,94.64
2017-07-01T03:47:06.966Z,94.74
2017-07-01T03:47:33.062Z,94.26
2017-07-01T03:47:59.150Z,94.64
2017-07-01T03:48:25.277Z,94.93
2017-07-01T03:48:51.436Z,94.64
2017-07-01T03:49:17.523Z,94.54
2017-07-01T03:49:43.678Z,94.74
2017-07-01T03:50:09.808Z,94.74
2017-07-01T03:50:35.925Z,94.54
2017-07-01T03:51:02.024Z,94.45
2017-07-01T03:51:28.137Z,94.26
2017-07-01T03:51:54.267Z,94.54
2017-07-01T03:52:20.374Z,94.64
2017-07-01T03:52:46.486Z,94.35
2017-07-01T03:53:12.612Z,94.93
2017-07-01T03:53:38.772Z,95.03
2017-07-01T03:54:04.885Z,95.79
2017-07-01T03:54:31.057Z,95.31
2017-07-01T03:54:57.190Z,94.26
2017-07-01T03:55:23.312Z,94.45
2017-07-01T03:55:49.426Z,94.35
2017-07-01T03:56:15.585Z,95.12
2017-07-01T03:56:41.685Z,95.12
2017-07-01T03:57:07.844Z,95.12
2017-07-01T03:57:33.932Z,94.54
2017-07-01T03:58:00.029Z,94.35
2017-07-01T03:58:26.134Z,94.84
2017-07-01T03:58:52.278Z,95.03
2017-07-01T03:59:18.367Z,94.26
2017-07-01T03:59:44.477Z,94.74
2017-07-01T04:00:10.597Z,94.54
2017-07-01T04:00:36.687Z,94.74
2017-07-01T04:01:02.842Z,94.84
2017-07-01T04:01:28.968Z,94.64
2017-07-01T04:01:55.066Z,94.17
2017-07-01T04:02:21.159Z,94.54
2017-07-01T04:02:47.248Z,94.54
2017-07-01T04:03:13.410Z,94.74
2017-07-01T04:03:39.563Z,94.64
2017-07-01T04:04:05.676Z,94.54
2017-07-01T04:04:31.801Z,94.64
2017-07-01T04:04:57.952Z,94.54
2017-07-01T04:05:24.039Z,94.64
2017-07-01T04:05:50.143Z,94.45
2017-07-01T04:06:16.275Z,94.54
2017-07-01T04:06:42.363Z,94.17
2017-07-01T04:07:08.487Z,94.93
2017-07-01T04:07:34.594Z,94.35
2017-07-01T04:08:00.710Z,94.64
2017-07-01T04:08:26.807Z,94.84
2017-07-01T04:08:52.972Z,95.03
2017-07-01T04:09:19.090Z,95.6
2017-07-01T04:09:45.228Z,95.51
2017-07-01T04:10:11.363Z,95.12
2017-07-01T04:10:37.488Z,95.7
2017-07-01T04:11:03.576Z,95.41
2017-07-01T04:11:29.684Z,95.12
2017-07-01T04:11:55.781Z,95.79
2017-07-01T04:12:21.873Z,95.21
2017-07-01T04:12:47.998Z,95.51
2017-07-01T04:13:14.144Z,95.89
2017-07-01T04:13:40.252Z,95.51
2017-07-01T04:14:06.374Z,95.7
2017-07-01T04:14:32.466Z,96.47
2017-07-01T04:14:58.595Z,96.56
2017-07-01T04:15:24.694Z,96.56
2017-07-01T04:15:50.808Z,96.56
2017-07-01T04:16:16.934Z,96.75
2017-07-01T04:16:43.037Z,97.33
2017-07-01T04:17:09.148Z,97.61
2017-07-01T04:17:35.297Z,97.33
2017-07-01T04:18:01.429Z,97.14
2017-07-01T04:18:27.547Z,97.14
2017-07-01T04:18:53.702Z,97.33
2017-07-01T04:19:19.793Z,97.9
2017-07-01T04:19:45.893Z,98.1
2017-07-01T04:20:11.997Z,97.81
2017-07-01T04:20:38.083Z,98.57
2017-07-01T04:21:04.231Z,98.19
2017-07-01T04:21:30.334Z,98.38
2017-07-01T04:21:56.427Z,98.38
2017-07-01T04:22:22.546Z,99.15
2017-07-01T04:22:48.652Z,98.77
2017-07-01T04:23:14.744Z,99.15
2017-07-01T04:23:40.859Z,98.77
2017-07-01T04:24:06.989Z,98.86
2017-07-01T04:24:33.114Z,99.01
2017-07-01T04:24:59.248Z,98.96
2017-07-01T04:25:25.337Z,98.28
2017-07-01T04:25:51.461Z,98.43
2017-07-01T04:26:17.566Z,98.72
2017-07-01T04:26:43.683Z,99.48
2017-07-01T04:27:09.821Z,99.82
2017-07-01T04:27:35.954Z,99.34
2017-07-01T04:28:02.048Z,99.73
2017-07-01T04:28:28.162Z,99.68
2017-07-01T04:28:54.325Z,99.48
2017-07-01T04:29:20.423Z,99.53
2017-07-01T04:29:46.522Z,99.39
2017-07-01T04:30:12.613Z,99.48
2017-07-01T04:30:38.727Z,99.96
2017-07-01T04:31:04.835Z,99.48
2017-07-01T04:31:30.958Z,99.68
2017-07-01T04:31:57.047Z,99.77
2017-07-01T04:32:23.208Z,99.39
2017-07-01T04:32:49.334Z,99.87
2017-07-01T04:33:15.447Z,99.68
2017-07-01T04:33:41.551Z,99.68
2017-07-01T04:34:07.657Z,99.68
2017-07-01T04:34:33.768Z,99.99
2017-07-01T04:34:59.917Z,99.99
2017-07-01T04:35:26.040Z,99.99
2017-07-01T04:35:52.145Z,99.99
2017-07-01T04:36:18.247Z,99.99
2017-07-01T04:36:44.383Z,99.99
2017-07-01T04:37:10.515Z,99.99
2017-07-01T04:37:36.624Z,99.99
2017-07-01T04:38:02.731Z,99.99
2017-07-01T04:38:28.856Z,99.99
2017-07-01T04:38:54.988Z,99.99
2017-07-01T04:39:21.077Z,99.99
2017-07-01T04:39:47.173Z,99.99
2017-07-01T04:40:13.279Z,99.99
2017-07-01T04:40:39.427Z,99.99
2017-07-01T04:41:05.557Z,99.99
2017-07-01T04:41:31.697Z,99.99
2017-07-01T04:41:57.846Z,99.99
2017-07-01T04:42:23.950Z,99.99
2017-07-01T04:42:50.115Z,99.99
2017-07-01T04:43:16.235Z,99.99
2017-07-01T04:43:42.336Z,99.99
2017-07-01T04:44:08.486Z,99.87
2017-07-01T04:44:34.600Z,99.99
2017-07-01T04:45:00.736Z,99.99
2017-07-01T04:45:26.832Z,99.99
2017-07-01T04:45:52.946Z,99.77
2017-07-01T04:46:19.051Z,99.29
2017-07-01T04:46:45.145Z,99.58
2017-07-01T04:47:11.250Z,99.68
2017-07-01T04:47:37.340Z,99.39
2017-07-01T04:48:03.429Z,99.39
2017-07-01T04:48:29.593Z,99.58
2017-07-01T04:48:55.744Z,99.68
2017-07-01T04:49:21.835Z,99.99
2017-07-01T04:49:47.965Z,99.99
2017-07-01T04:50:14.091Z,99.99
2017-07-01T04:50:40.179Z,99.99
2017-07-01T04:51:06.284Z,99.96
2017-07-01T04:51:32.389Z,99.96
2017-07-01T04:51:58.503Z,99.68
2017-07-01T04:52:24.597Z,99.87
2017-07-01T04:52:50.703Z,99.68
2017-07-01T04:53:16.792Z,99.99
2017-07-01T04:53:42.887Z,99.96
2017-07-01T04:54:09.049Z,99.39
2017-07-01T04:54:35.195Z,99.39
2017-07-01T04:55:01.285Z,99.58
2017-07-01T04:55:27.394Z,99.96
2017-07-01T04:55:53.545Z,99.48
2017-07-01T04:56:19.660Z,99.96
2017-07-01T04:56:45.766Z,99.1
2017-07-01T04:57:11.867Z,98.81
2017-07-01T04:57:38.020Z,99.29
2017-07-01T04:58:04.141Z,98.72
2017-07-01T04:58:30.232Z,98.81
2017-07-01T04:58:56.340Z,99.39
2017-07-01T04:59:22.463Z,99.1
2017-07-01T04:59:48.580Z,98.81
2017-07-01T05:00:14.683Z,98.91
2017-07-01T05:00:40.782Z,98.77
2017-07-01T05:01:06.870Z,98.05
2017-07-01T05:01:32.971Z,98.24
2017-07-01T05:01:59.159Z,99.19
2017-07-01T05:02:25.244Z,98.62
2017-07-01T05:02:51.342Z,98.91
2017-07-01T05:03:17.464Z,98.33
2017-07-01T05:03:43.596Z,98.52
2017-07-01T05:04:09.721Z,98.52
2017-07-01T05:04:35.812Z,98.33
2017-07-01T05:05:01.915Z,98.86
2017-07-01T05:05:28.021Z,98.38
2017-07-01T05:05:54.131Z,98.81
2017-07-01T05:06:20.227Z,99.15
2017-07-01T05:06:46.357Z,99.19
2017-07-01T05:07:12.447Z,98
2017-07-01T05:07:38.567Z,98.1
2017-07-01T05:08:04.672Z,98.28
2017-07-01T05:08:30.790Z,97.66
2017-07-01T05:08:56.894Z,97.71
2017-07-01T05:09:23.005Z,98.19
2017-07-01T05:09:49.100Z,98.19
2017-07-01T05:10:15.210Z,98.38
2017-07-01T05:10:41.351Z,98.19
2017-07-01T05:11:07.466Z,98.28
2017-07-01T05:11:33.569Z,97.61
2017-07-01T05:11:59.662Z,97.71
2017-07-01T05:12:25.778Z,97.04
2017-07-01T05:12:51.938Z,97.71
2017-07-01T05:13:18.092Z,97.14
2017-07-01T05:13:44.185Z,97.14
2017-07-01T05:14:10.288Z,97.81
2017-07-01T05:14:36.381Z,97.33
2017-07-01T05:15:02.486Z,97.52
2017-07-01T05:15:28.605Z,96.75
2017-07-01T05:15:54.695Z,96.47
2017-07-01T05:16:20.831Z,96.56
2017-07-01T05:16:46.927Z,96.08
2017-07-01T05:17:13.017Z,96.66
2017-07-01T05:17:39.123Z,95.79
2017-07-01T05:18:05.221Z,95.89
2017-07-01T05:18:31.307Z,96.66
2017-07-01T05:18:57.410Z,97.04
2017-07-01T05:19:23.517Z,96.56
2017-07-01T05:19:49.637Z,96.27
2017-07-01T05:20:15.734Z,96.37
2017-07-01T05:20:41.846Z,96.75
2017-07-01T05:21:07.953Z,96.56
2017-07-01T05:21:34.050Z,96.56
2017-07-01T05:22:00.166Z,96.85
2017-07-01T05:22:26.268Z,96.56
2017-07-01T05:22:52.374Z,96.66
2017-07-01T05:23:18.575Z,97.23
2017-07-01T05:23:44.663Z,97.14
2017-07-01T05:24:10.798Z,96.56
2017-07-01T05:24:36.916Z,96.66
2017-07-01T05:25:03.012Z,96.27
2017-07-01T05:25:29.161Z,96.18
2017-07-01T05:25:55.285Z,96.08
2017-07-01T05:26:21.417Z,95.89
2017-07-01T05:26:47.530Z,95.89
2017-07-01T05:27:13.629Z,96.56
2017-07-01T05:27:39.763Z,96.08
2017-07-01T05:28:05.902Z,95.6
2017-07-01T05:28:32.023Z,95.89
2017-07-01T05:28:58.132Z,95.98
2017-07-01T05:29:24.227Z,96.08
2017-07-01T05:29:50.339Z,95.7
2017-07-01T05:30:16.446Z,96.08
2017-07-01T05:30:42.543Z,95.79
2017-07-01T05:31:08.673Z,96.27
2017-07-01T05:31:34.787Z,96.08
2017-07-01T05:32:00.906Z,95.89
2017-07-01T05:32:27.041Z,96.85
2017-07-01T05:32:53.134Z,96.94
2017-07-01T05:33:19.248Z,96.18
2017-07-01T05:33:45.385Z,95.98
2017-07-01T05:34:11.510Z,96.08
2017-07-01T05:34:37.623Z,96.08
2017-07-01T05:35:03.730Z,95.7
2017-07-01T05:35:29.856Z,95.51
2017-07-01T05:35:55.971Z,95.03
2017-07-01T05:36:22.073Z,95.65
2017-07-01T05:36:48.179Z,95.75
2017-07-01T05:37:14.342Z,95.36
2017-07-01T05:37:40.463Z,95.36